createdAt,value
2019-01-09T00:06:59.000Z,40
2019-01-09T00:16:58.000Z,40.4
2019-01-09T00:26:58.000Z,40.7
2019-01-09T00:36:58.000Z,40
2019-01-09T00:56:58.000Z,40
2019-01-09T01:06:58.000Z,41
2019-01-09T01:26:58.000Z,40.8
2019-01-09T01:36:58.000Z,40.6
2019-01-09T01:56:58.000Z,40.3
2019-01-09T02:06:58.000Z,41.3
2019-01-09T02:16:58.000Z,40.3
2019-01-09T02:26:58.000Z,40.3
2019-01-09T02:36:58.000Z,40
2019-01-09T02:46:58.000Z,39.7
2019-01-09T02:56:58.000Z,40.1
2019-01-09T03:06:58.000Z,40
2019-01-09T03:16:58.000Z,40
2019-01-09T03:26:58.000Z,39.4
2019-01-09T03:36:58.000Z,38.8
2019-01-09T03:46:58.000Z,38.9
2019-01-09T03:56:58.000Z,38.9
2019-01-09T04:06:58.000Z,38.4
2019-01-09T04:16:59.000Z,38.3
2019-01-09T04:26:59.000Z,38.4
2019-01-09T04:36:59.000Z,38.1
2019-01-09T04:46:59.000Z,37.7
2019-01-09T04:56:59.000Z,38
2019-01-09T05:06:59.000Z,37.9
2019-01-09T05:16:59.000Z,38.1
2019-01-09T05:26:59.000Z,38.1
2019-01-09T05:36:59.000Z,38.7
2019-01-09T05:47:00.000Z,39
2019-01-09T05:56:59.000Z,39.2
2019-01-09T06:06:59.000Z,39.5
2019-01-09T06:16:59.000Z,39.2
2019-01-09T06:26:59.000Z,41.9
2019-01-09T06:37:01.000Z,48.7
2019-01-09T06:47:01.000Z,48.8
2019-01-09T06:56:59.000Z,49.1
2019-01-09T07:06:59.000Z,50
2019-01-09T07:16:59.000Z,50.6
2019-01-09T07:26:59.000Z,50.1
2019-01-09T07:36:59.000Z,49.7
2019-01-09T07:46:59.000Z,50.2
2019-01-09T07:56:59.000Z,49.9
2019-01-09T08:06:59.000Z,49.3
2019-01-09T08:16:59.000Z,49.6
2019-01-09T08:26:59.000Z,49
2019-01-09T08:36:59.000Z,49.7
2019-01-09T08:47:02.000Z,49.3
2019-01-09T08:56:59.000Z,49.1
2019-01-09T09:06:59.000Z,49.3
2019-01-09T09:16:59.000Z,49.3
2019-01-09T09:26:59.000Z,49.3
2019-01-09T09:36:59.000Z,48.7
2019-01-09T09:46:59.000Z,48.9
2019-01-09T09:56:59.000Z,49.1
2019-01-09T10:06:59.000Z,49.1
2019-01-09T10:16:59.000Z,49.2
2019-01-09T10:26:59.000Z,49.3
2019-01-09T10:36:59.000Z,49.3
2019-01-09T10:46:59.000Z,49.4
2019-01-09T10:56:59.000Z,49.5
2019-01-09T11:06:59.000Z,49.7
2019-01-09T11:16:59.000Z,50
2019-01-09T11:26:59.000Z,49.9
2019-01-09T11:37:00.000Z,50
2019-01-09T11:47:00.000Z,50.1
2019-01-09T11:57:00.000Z,50.1
2019-01-09T12:07:03.000Z,50
2019-01-09T12:17:00.000Z,50.1
2019-01-09T12:27:00.000Z,50.2
2019-01-09T12:37:00.000Z,50.4
2019-01-09T12:47:00.000Z,50.6
2019-01-09T12:57:00.000Z,50.1
2019-01-09T13:07:03.000Z,50.2
2019-01-09T13:17:00.000Z,50.1
2019-01-09T13:27:00.000Z,50.1
2019-01-09T13:37:00.000Z,50
2019-01-09T13:47:01.000Z,50
2019-01-09T13:57:00.000Z,49.9
2019-01-09T14:07:00.000Z,50
2019-01-09T14:17:00.000Z,50.6
2019-01-09T14:27:00.000Z,50.4
2019-01-09T14:37:00.000Z,49.9
2019-01-09T14:47:00.000Z,49.7
2019-01-09T14:57:00.000Z,49.6
2019-01-09T15:07:00.000Z,49.5
2019-01-09T15:17:00.000Z,49.2
2019-01-09T15:27:00.000Z,49
2019-01-09T15:37:00.000Z,49.2
2019-01-09T15:47:00.000Z,49.6
2019-01-09T15:57:00.000Z,50.1
2019-01-09T16:07:00.000Z,50.2
2019-01-09T16:17:02.000Z,50.1
2019-01-09T16:27:00.000Z,50.4
2019-01-09T16:37:01.000Z,50.3
2019-01-09T16:47:04.000Z,50.8
2019-01-09T16:57:00.000Z,49.8
2019-01-09T17:07:02.000Z,50.5
2019-01-09T17:27:00.000Z,53.6
2019-01-09T17:37:00.000Z,56.1
2019-01-09T17:47:00.000Z,55.7
2019-01-09T17:57:00.000Z,55.6
2019-01-09T18:07:00.000Z,55.5
2019-01-09T18:17:01.000Z,55.6
2019-01-09T18:27:00.000Z,55.8
2019-01-09T18:37:01.000Z,55.4
2019-01-09T18:47:03.000Z,55.2
2019-01-09T18:57:01.000Z,55.1
2019-01-09T19:07:01.000Z,55.2
2019-01-09T19:17:01.000Z,55
2019-01-09T19:27:01.000Z,54.8
2019-01-09T19:37:01.000Z,54.7
2019-01-09T19:47:01.000Z,54.6
2019-01-09T19:57:01.000Z,54.8
2019-01-09T20:07:01.000Z,54.6
2019-01-09T20:17:01.000Z,54.6
2019-01-09T20:27:01.000Z,54.5
2019-01-09T20:37:01.000Z,54.6
2019-01-09T20:47:01.000Z,54.5
2019-01-09T20:57:01.000Z,54.7
2019-01-09T21:07:01.000Z,54.6
2019-01-09T21:17:01.000Z,54.6
2019-01-09T21:27:01.000Z,54.5
2019-01-09T21:37:01.000Z,54.4
2019-01-09T21:47:01.000Z,54.7
2019-01-09T21:57:01.000Z,39
2019-01-09T22:07:01.000Z,33.1
2019-01-09T22:17:01.000Z,32.2
2019-01-09T22:27:01.000Z,32
2019-01-09T22:37:01.000Z,32.2
2019-01-09T22:47:01.000Z,31.7
2019-01-09T22:57:01.000Z,31.9
2019-01-09T23:07:05.000Z,32.1
2019-01-09T23:17:01.000Z,32.3
2019-01-09T23:27:01.000Z,32.2
2019-01-09T23:37:01.000Z,32.1
2019-01-09T23:47:01.000Z,32.6
2019-01-09T23:57:01.000Z,32.6
